createdAt,value
2023-02-03T00:01:36.380Z,99.90
2023-02-03T00:04:03.232Z,99.90
2023-02-03T00:06:32.074Z,99.90
2023-02-03T00:09:00.809Z,99.90
2023-02-03T00:11:30.410Z,99.90
2023-02-03T00:17:44.646Z,99.90
2023-02-03T00:20:12.240Z,99.90
2023-02-03T00:22:38.989Z,99.90
2023-02-03T00:25:06.133Z,99.90
2023-02-03T00:27:33.131Z,99.90
2023-02-03T00:29:59.945Z,99.90
2023-02-03T00:32:26.915Z,99.90
2023-02-03T00:34:53.772Z,99.90
2023-02-03T00:37:20.621Z,99.70
2023-02-03T00:39:47.353Z,99.90
2023-02-03T00:42:14.174Z,99.80
2023-02-03T00:44:40.941Z,99.80
2023-02-03T00:47:07.812Z,99.50
2023-02-03T00:49:34.608Z,99.40
2023-02-03T00:52:01.470Z,99.50
2023-02-03T00:54:28.257Z,99.40
2023-02-03T00:56:55.023Z,99.20
2023-02-03T00:59:21.917Z,99.20
2023-02-03T01:01:51.066Z,99.10
2023-02-03T01:04:17.910Z,98.90
2023-02-03T01:06:44.732Z,98.60
2023-02-03T01:09:11.483Z,99.10
2023-02-03T01:11:38.231Z,99.00
2023-02-03T01:14:05.003Z,98.90
2023-02-03T01:16:35.908Z,98.90
2023-02-03T01:19:02.699Z,98.90
2023-02-03T01:21:29.463Z,99.00
2023-02-03T01:23:56.726Z,98.90
2023-02-03T01:26:24.555Z,99.00
2023-02-03T01:28:52.921Z,99.00
2023-02-03T01:31:22.847Z,98.70
2023-02-03T01:33:51.573Z,98.80
2023-02-03T01:36:18.729Z,98.60
2023-02-03T01:38:46.336Z,99.10
2023-02-03T01:41:16.703Z,98.80
2023-02-03T01:43:47.229Z,98.80
2023-02-03T01:46:17.161Z,98.80
2023-02-03T01:48:44.273Z,98.90
2023-02-03T01:51:11.390Z,98.80
2023-02-03T01:53:39.265Z,98.70
2023-02-03T01:56:07.284Z,98.80
2023-02-03T01:58:39.286Z,98.80
2023-02-03T02:01:06.261Z,98.80
2023-02-03T02:03:40.492Z,98.80
2023-02-03T02:06:09.863Z,98.70
2023-02-03T02:08:38.442Z,98.80
2023-02-03T02:11:05.932Z,98.70
2023-02-03T02:13:37.410Z,98.60
2023-02-03T02:16:12.541Z,98.50
2023-02-03T02:18:51.885Z,98.40
2023-02-03T02:21:24.558Z,98.10
2023-02-03T02:24:15.915Z,98.20
2023-02-03T02:26:59.922Z,98.10
2023-02-03T02:29:54.377Z,97.50
2023-02-03T02:32:36.926Z,97.30
2023-02-03T02:35:30.049Z,97.70
2023-02-03T02:38:04.846Z,96.90
2023-02-03T02:40:43.909Z,97.30
2023-02-03T02:43:14.336Z,97.10
2023-02-03T02:45:54.193Z,97.20
2023-02-03T02:48:43.886Z,96.90
2023-02-03T02:51:14.196Z,96.70
2023-02-03T02:53:46.605Z,96.80
2023-02-03T02:56:15.729Z,97.00
2023-02-03T02:58:44.926Z,96.90
2023-02-03T03:01:12.297Z,97.20
2023-02-03T03:03:42.856Z,96.80
2023-02-03T03:06:16.476Z,97.20
2023-02-03T03:09:07.715Z,97.10
2023-02-03T03:11:41.350Z,97.10
2023-02-03T03:14:11.400Z,97.30
2023-02-03T03:16:39.957Z,97.20
2023-02-03T03:19:14.487Z,97.10
2023-02-03T03:21:50.517Z,97.20
2023-02-03T03:24:24.202Z,97.10
2023-02-03T03:27:05.989Z,97.30
2023-02-03T03:29:49.241Z,97.30
2023-02-03T03:32:16.290Z,97.20
2023-02-03T03:34:43.579Z,97.40
2023-02-03T03:37:13.490Z,97.00
2023-02-03T03:39:48.830Z,97.00
2023-02-03T03:42:36.433Z,97.00
2023-02-03T03:45:27.200Z,96.80
2023-02-03T03:48:12.436Z,96.80
2023-02-03T03:50:53.962Z,97.00
2023-02-03T03:53:23.192Z,96.90
2023-02-03T03:55:52.736Z,97.10
2023-02-03T03:58:26.022Z,97.10
2023-02-03T04:00:57.333Z,97.10
2023-02-03T04:03:29.720Z,97.20
2023-02-03T04:05:56.483Z,97.10
2023-02-03T04:08:23.307Z,97.20
2023-02-03T04:10:50.036Z,97.30
2023-02-03T04:13:19.925Z,97.20
2023-02-03T04:15:46.904Z,97.30
2023-02-03T04:18:15.388Z,97.20
2023-02-03T04:20:43.044Z,97.10
2023-02-03T04:23:10.457Z,97.20
2023-02-03T04:25:37.219Z,97.20
2023-02-03T04:28:04.269Z,97.00
2023-02-03T04:30:31.069Z,97.10
2023-02-03T04:32:57.817Z,97.00
2023-02-03T04:35:24.604Z,97.00
2023-02-03T04:37:51.399Z,97.00
2023-02-03T04:40:18.374Z,97.00
2023-02-03T04:42:45.146Z,97.00
2023-02-03T04:45:12.764Z,97.00
2023-02-03T04:47:39.768Z,97.00
2023-02-03T04:50:06.966Z,96.90
2023-02-03T04:52:33.784Z,96.90
2023-02-03T04:55:00.551Z,96.90
2023-02-03T04:57:27.286Z,96.90
2023-02-03T04:59:54.027Z,96.70
2023-02-03T05:02:20.767Z,96.70
2023-02-03T05:04:47.484Z,96.80
2023-02-03T05:07:14.259Z,96.70
2023-02-03T05:09:40.978Z,96.70
2023-02-03T05:12:07.822Z,96.80
2023-02-03T05:14:34.626Z,96.80
2023-02-03T05:17:01.346Z,97.00
2023-02-03T05:19:28.152Z,97.00
2023-02-03T05:21:54.914Z,97.00
2023-02-03T05:24:21.661Z,97.00
2023-02-03T05:26:48.457Z,97.20
2023-02-03T05:29:15.319Z,97.30
2023-02-03T05:31:42.073Z,97.30
2023-02-03T05:34:08.969Z,97.20
2023-02-03T05:36:35.693Z,97.30
2023-02-03T05:39:02.447Z,97.30
2023-02-03T05:41:47.690Z,97.60
2023-02-03T05:44:14.432Z,97.30
2023-02-03T05:46:41.175Z,97.30
2023-02-03T05:49:08.049Z,97.40
2023-02-03T05:51:34.850Z,97.40
2023-02-03T05:54:01.692Z,97.50
2023-02-03T05:56:28.525Z,97.50
2023-02-03T05:58:56.452Z,97.60
2023-02-03T06:01:23.315Z,97.70
2023-02-03T06:03:50.444Z,97.70
2023-02-03T06:06:17.751Z,97.70
2023-02-03T06:08:44.633Z,97.70
2023-02-03T06:11:12.109Z,97.80
2023-02-03T06:13:39.337Z,97.80
2023-02-03T06:16:06.505Z,97.80
2023-02-03T06:18:33.234Z,97.80
2023-02-03T06:20:59.972Z,97.90
2023-02-03T06:23:26.706Z,97.80
2023-02-03T06:25:53.568Z,97.90
2023-02-03T06:28:20.549Z,98.00
2023-02-03T06:30:51.219Z,98.10
2023-02-03T06:33:18.132Z,98.10
2023-02-03T06:35:44.886Z,98.20
2023-02-03T06:38:12.093Z,98.20
2023-02-03T06:40:38.850Z,98.20
2023-02-03T06:43:05.639Z,98.30
2023-02-03T06:45:32.395Z,98.30
2023-02-03T06:47:59.128Z,98.40
2023-02-03T06:50:26.165Z,98.30
2023-02-03T06:52:53.052Z,98.30
2023-02-03T06:55:19.811Z,98.40
2023-02-03T06:57:48.412Z,98.30
2023-02-03T07:00:25.997Z,98.40
2023-02-03T07:02:59.831Z,98.40
2023-02-03T07:05:28.052Z,98.50
2023-02-03T07:07:54.885Z,98.40
2023-02-03T07:10:21.914Z,98.60
2023-02-03T07:12:50.709Z,98.60
2023-02-03T07:15:18.127Z,98.70
2023-02-03T07:17:46.990Z,98.60
2023-02-03T07:20:13.785Z,98.90
2023-02-03T07:22:42.404Z,98.60
2023-02-03T07:25:09.210Z,98.60
2023-02-03T07:27:35.975Z,98.60
2023-02-03T07:30:02.871Z,98.80
2023-02-03T07:32:29.711Z,98.80
2023-02-03T07:34:57.005Z,98.90
2023-02-03T07:37:23.741Z,98.80
2023-02-03T07:39:50.476Z,98.70
2023-02-03T07:42:17.217Z,98.60
2023-02-03T07:44:43.954Z,98.60
2023-02-03T07:47:12.523Z,98.50
2023-02-03T07:49:39.471Z,98.50
2023-02-03T07:52:06.299Z,98.60
2023-02-03T07:54:33.015Z,98.50
2023-02-03T07:56:59.764Z,98.50
2023-02-03T07:59:26.559Z,98.50
2023-02-03T08:01:56.289Z,98.30
2023-02-03T08:04:24.404Z,98.30
2023-02-03T08:06:51.204Z,98.10
2023-02-03T08:09:18.058Z,98.10
2023-02-03T08:11:44.847Z,98.10
2023-02-03T08:14:11.611Z,97.90
2023-02-03T08:16:38.437Z,97.90
2023-02-03T08:19:05.840Z,97.80
2023-02-03T08:21:32.701Z,97.70
2023-02-03T08:23:59.484Z,97.60
2023-02-03T08:26:26.273Z,97.70
2023-02-03T08:28:53.189Z,97.80
2023-02-03T08:31:20.152Z,97.70
2023-02-03T08:36:31.636Z,97.40
2023-02-03T08:38:58.455Z,97.40
2023-02-03T08:41:25.252Z,97.30
2023-02-03T08:43:52.006Z,97.20
2023-02-03T08:46:18.761Z,97.20
2023-02-03T08:48:45.541Z,97.20
2023-02-03T08:51:17.383Z,97.10
2023-02-03T08:53:44.225Z,96.90
2023-02-03T08:56:12.386Z,96.80
2023-02-03T08:58:39.286Z,96.90
2023-02-03T09:01:16.231Z,97.00
2023-02-03T09:03:43.216Z,97.20
2023-02-03T09:06:13.173Z,96.70
2023-02-03T09:08:40.028Z,96.70
2023-02-03T09:11:15.363Z,96.40
2023-02-03T09:13:48.834Z,96.10
2023-02-03T09:16:17.423Z,96.10
2023-02-03T09:18:45.728Z,96.20
2023-02-03T09:21:27.402Z,96.50
2023-02-03T09:24:03.406Z,96.20
2023-02-03T09:26:30.486Z,95.90
2023-02-03T09:28:57.324Z,96.30
2023-02-03T09:31:24.273Z,96.00
2023-02-03T09:33:51.365Z,95.60
2023-02-03T09:36:18.211Z,95.50
2023-02-03T09:38:44.997Z,95.10
2023-02-03T09:41:17.578Z,95.10
2023-02-03T09:44:08.506Z,94.70
2023-02-03T09:46:55.834Z,94.10
2023-02-03T09:49:33.261Z,94.60
2023-02-03T09:52:05.793Z,94.50
2023-02-03T09:54:53.134Z,94.30
2023-02-03T09:57:23.995Z,94.30
2023-02-03T09:59:52.966Z,94.30
2023-02-03T10:02:22.925Z,94.00
2023-02-03T10:05:27.784Z,93.90
2023-02-03T10:07:57.459Z,94.30
2023-02-03T10:10:41.205Z,93.60
2023-02-03T10:13:30.063Z,93.40
2023-02-03T10:16:08.024Z,93.40
2023-02-03T10:18:45.565Z,93.50
2023-02-03T10:21:21.235Z,93.20
2023-02-03T10:23:49.447Z,93.30
2023-02-03T10:26:23.860Z,93.20
2023-02-03T10:29:02.449Z,93.40
2023-02-03T10:31:35.364Z,93.50
2023-02-03T10:34:11.690Z,93.10
2023-02-03T10:36:50.641Z,93.50
2023-02-03T10:39:33.520Z,93.30
2023-02-03T10:42:02.424Z,93.40
2023-02-03T10:44:54.200Z,93.10
2023-02-03T10:47:25.169Z,93.00
2023-02-03T10:49:53.745Z,92.70
2023-02-03T10:52:32.622Z,92.70
2023-02-03T10:54:59.900Z,92.80
2023-02-03T10:57:29.198Z,92.60
2023-02-03T11:00:17.613Z,92.60
2023-02-03T11:02:45.337Z,92.70
2023-02-03T11:05:21.109Z,92.80
2023-02-03T11:07:48.975Z,92.90
2023-02-03T11:10:40.653Z,92.90
2023-02-03T11:13:18.078Z,92.70
2023-02-03T11:15:57.058Z,92.70
2023-02-03T11:18:39.183Z,92.40
2023-02-03T11:21:22.653Z,92.40
2023-02-03T11:24:01.455Z,92.50
2023-02-03T11:26:50.465Z,92.60
2023-02-03T11:29:28.969Z,92.50
2023-02-03T11:31:57.942Z,92.40
2023-02-03T11:34:39.583Z,92.40
2023-02-03T11:37:28.285Z,92.40
2023-02-03T11:40:23.566Z,92.10
2023-02-03T11:42:50.248Z,92.20
2023-02-03T11:45:27.280Z,91.80
2023-02-03T11:48:14.138Z,91.80
2023-02-03T11:51:10.001Z,91.90
2023-02-03T11:53:56.899Z,92.00
2023-02-03T11:56:43.383Z,91.80
2023-02-03T11:59:40.600Z,92.20
2023-02-03T12:02:48.846Z,91.70
2023-02-03T12:05:27.566Z,92.00
2023-02-03T12:08:14.907Z,91.90
2023-02-03T12:10:56.614Z,91.80
2023-02-03T12:13:53.072Z,91.50
2023-02-03T12:17:06.228Z,91.40
2023-02-03T12:19:41.904Z,91.50
2023-02-03T12:22:24.216Z,91.60
2023-02-03T12:25:10.375Z,91.30
2023-02-03T12:27:45.967Z,91.20
2023-02-03T12:30:19.243Z,91.20
2023-02-03T12:32:52.612Z,91.30
2023-02-03T12:35:26.776Z,91.40
2023-02-03T12:38:03.227Z,91.20
2023-02-03T12:40:39.979Z,91.20
2023-02-03T12:43:12.647Z,91.00
2023-02-03T12:45:40.263Z,90.90
2023-02-03T12:48:16.395Z,91.10
2023-02-03T12:50:50.390Z,91.20
2023-02-03T12:53:22.566Z,91.20
2023-02-03T12:56:07.418Z,91.20
2023-02-03T12:58:47.660Z,91.10
2023-02-03T13:01:28.232Z,91.20
2023-02-03T13:04:21.031Z,91.00
2023-02-03T13:07:06.897Z,90.80
2023-02-03T13:09:53.297Z,90.70
2023-02-03T13:12:30.721Z,90.90
2023-02-03T13:15:19.819Z,90.80
2023-02-03T13:18:26.499Z,91.10
2023-02-03T13:20:54.535Z,91.30
2023-02-03T13:23:22.539Z,91.30
2023-02-03T13:26:16.852Z,91.60
2023-02-03T13:29:22.620Z,91.60
2023-02-03T13:32:29.599Z,92.20
2023-02-03T13:35:33.774Z,93.20
2023-02-03T13:38:07.482Z,93.90
2023-02-03T13:40:37.309Z,94.40
2023-02-03T13:43:11.422Z,95.10
2023-02-03T13:45:48.848Z,95.40
2023-02-03T13:48:30.976Z,95.80
2023-02-03T13:51:06.760Z,96.30
2023-02-03T13:53:39.263Z,96.90
2023-02-03T13:56:09.403Z,97.10
2023-02-03T13:58:39.178Z,97.30
2023-02-03T14:01:26.184Z,97.80
2023-02-03T14:03:53.650Z,97.80
2023-02-03T14:06:55.001Z,97.80
2023-02-03T14:09:30.788Z,98.00
2023-02-03T14:12:15.749Z,98.00
2023-02-03T14:15:03.227Z,98.30
2023-02-03T14:17:36.029Z,98.40
2023-02-03T14:20:05.630Z,98.60
2023-02-03T14:22:32.656Z,99.00
2023-02-03T14:25:06.841Z,99.40
2023-02-03T14:27:33.929Z,99.30
2023-02-03T14:30:10.773Z,99.40
2023-02-03T14:32:55.347Z,99.70
2023-02-03T14:35:29.744Z,99.70
2023-02-03T14:38:03.721Z,99.80
2023-02-03T14:40:47.997Z,99.90
2023-02-03T14:43:27.240Z,99.90
2023-02-03T14:46:12.234Z,99.90
2023-02-03T14:49:08.390Z,99.90
2023-02-03T14:52:21.042Z,99.90
2023-02-03T14:55:10.102Z,99.90
2023-02-03T14:57:49.107Z,99.90
2023-02-03T15:00:22.931Z,99.90
2023-02-03T15:03:09.309Z,99.90
2023-02-03T15:05:54.697Z,99.90
2023-02-03T15:08:45.670Z,99.90
2023-02-03T15:11:29.140Z,99.90
2023-02-03T15:14:13.345Z,99.90
2023-02-03T15:16:43.929Z,99.90
2023-02-03T15:19:20.766Z,99.90
2023-02-03T15:21:47.696Z,99.90
2023-02-03T15:24:19.653Z,99.90
2023-02-03T15:26:51.610Z,99.90
2023-02-03T15:29:26.438Z,99.90
2023-02-03T15:32:26.643Z,99.90
2023-02-03T15:34:55.820Z,99.90
2023-02-03T15:37:42.855Z,99.90
2023-02-03T15:40:17.726Z,99.90
2023-02-03T15:43:01.844Z,99.90
2023-02-03T15:45:41.827Z,99.90
2023-02-03T15:48:23.723Z,99.90
2023-02-03T15:51:09.173Z,99.90
2023-02-03T15:53:58.634Z,99.90
2023-02-03T15:56:42.189Z,99.90
2023-02-03T15:59:48.130Z,99.90
2023-02-03T16:02:30.217Z,99.90
2023-02-03T16:04:57.429Z,99.90
2023-02-03T16:07:30.187Z,99.90
2023-02-03T16:09:58.755Z,99.90
2023-02-03T16:12:29.814Z,99.90
2023-02-03T16:14:58.747Z,99.90
2023-02-03T16:17:28.577Z,99.90
2023-02-03T16:20:14.392Z,99.90
2023-02-03T16:22:46.988Z,99.90
2023-02-03T16:25:19.920Z,99.90
2023-02-03T16:28:16.092Z,99.90
2023-02-03T16:31:28.897Z,99.90
2023-02-03T16:34:14.183Z,99.90
2023-02-03T16:37:02.266Z,99.90
2023-02-03T16:39:47.935Z,99.90
2023-02-03T16:42:38.598Z,99.90
2023-02-03T16:45:34.819Z,99.90
2023-02-03T16:48:21.421Z,99.90
2023-02-03T16:50:56.353Z,99.90
2023-02-03T16:53:25.559Z,99.90
2023-02-03T16:55:54.744Z,99.90
2023-02-03T16:58:21.984Z,99.90
2023-02-03T17:00:50.386Z,99.90
2023-02-03T17:03:19.613Z,99.90
2023-02-03T17:05:47.802Z,99.90
2023-02-03T17:08:16.458Z,99.90
2023-02-03T17:10:44.311Z,99.90
2023-02-03T17:13:11.838Z,99.90
2023-02-03T17:15:55.328Z,99.90
2023-02-03T17:18:22.323Z,99.90
2023-02-03T17:20:49.136Z,99.90
2023-02-03T17:23:16.693Z,99.90
2023-02-03T17:25:48.638Z,99.90
2023-02-03T17:28:15.631Z,99.90
2023-02-03T17:30:42.652Z,99.90
2023-02-03T17:33:12.828Z,99.90
2023-02-03T17:35:43.886Z,99.90
2023-02-03T17:38:11.757Z,99.90
2023-02-03T17:54:30.790Z,99.90
2023-02-03T17:56:57.538Z,99.90
2023-02-03T17:59:24.279Z,99.90
2023-02-03T18:01:51.890Z,99.90
2023-02-03T18:04:18.766Z,99.90
2023-02-03T18:06:46.428Z,99.90
2023-02-03T18:09:16.586Z,99.90
2023-02-03T18:11:43.811Z,99.90
2023-02-03T18:14:12.539Z,99.90
2023-02-03T18:16:40.370Z,99.90
2023-02-03T18:19:10.761Z,99.90
2023-02-03T18:21:41.855Z,99.90
2023-02-03T18:24:10.909Z,99.90
2023-02-03T18:26:47.364Z,99.90
2023-02-03T18:29:14.299Z,99.90
2023-02-03T18:31:41.384Z,99.90
2023-02-03T18:34:08.236Z,99.90
2023-02-03T18:36:34.991Z,99.90
2023-02-03T18:39:02.154Z,99.90
2023-02-03T18:41:28.965Z,99.90
2023-02-03T18:43:55.850Z,99.90
2023-02-03T18:46:28.337Z,99.90
2023-02-03T18:48:56.227Z,99.90
2023-02-03T18:51:24.432Z,99.90
2023-02-03T18:53:51.683Z,99.90
2023-02-03T18:56:23.503Z,99.90
2023-02-03T18:58:50.981Z,99.90
2023-02-03T19:01:26.399Z,99.90
2023-02-03T19:03:55.150Z,99.90
2023-02-03T19:06:24.194Z,99.90
2023-02-03T19:08:51.571Z,99.90
2023-02-03T19:11:18.682Z,99.90
2023-02-03T19:13:45.580Z,99.90
2023-02-03T19:16:14.770Z,99.90
2023-02-03T19:18:41.980Z,99.90
2023-02-03T19:21:11.100Z,99.90
2023-02-03T19:23:42.095Z,99.90
2023-02-03T19:26:10.040Z,99.90
2023-02-03T19:28:37.294Z,99.90
2023-02-03T19:31:09.332Z,99.90
2023-02-03T19:33:37.461Z,99.90
2023-02-03T19:36:05.548Z,99.90
2023-02-03T19:38:32.365Z,99.90
2023-02-03T19:41:01.549Z,99.90
2023-02-03T19:43:29.884Z,99.90
2023-02-03T19:45:56.873Z,99.90
2023-02-03T19:48:23.701Z,99.90
2023-02-03T19:50:50.528Z,99.90
2023-02-03T19:53:18.357Z,99.90
2023-02-03T19:55:46.314Z,99.90
2023-02-03T19:58:14.143Z,99.90
2023-02-03T20:00:42.359Z,99.90
2023-02-03T20:03:09.998Z,99.90
2023-02-03T20:05:37.121Z,99.90
2023-02-03T20:08:04.619Z,99.90
2023-02-03T20:10:32.936Z,99.90
2023-02-03T20:13:00.157Z,99.90
2023-02-03T20:15:27.170Z,99.90
2023-02-03T20:17:54.370Z,99.90
2023-02-03T20:20:21.313Z,99.90
2023-02-03T20:22:48.731Z,99.90
2023-02-03T20:25:16.413Z,99.90
2023-02-03T20:27:43.261Z,99.90
2023-02-03T20:30:11.189Z,99.90
2023-02-03T20:32:38.055Z,99.90
2023-02-03T20:35:06.370Z,99.90
2023-02-03T20:37:33.172Z,99.90
2023-02-03T20:39:59.968Z,99.90
2023-02-03T20:42:27.405Z,99.90
2023-02-03T20:44:55.282Z,99.90
2023-02-03T20:47:22.946Z,99.90
2023-02-03T20:49:50.053Z,99.90
2023-02-03T20:52:21.082Z,99.90
2023-02-03T20:54:48.077Z,99.90
2023-02-03T20:57:17.425Z,99.90
2023-02-03T20:59:45.673Z,99.90
2023-02-03T21:02:47.918Z,99.90
2023-02-03T21:05:27.438Z,99.90
2023-02-03T21:07:54.712Z,99.90
2023-02-03T21:10:24.654Z,99.90
2023-02-03T21:12:52.076Z,99.90
2023-02-03T21:15:37.022Z,99.90
2023-02-03T21:18:17.827Z,99.90
2023-02-03T21:20:44.721Z,99.90
2023-02-03T21:23:13.083Z,99.90
2023-02-03T21:25:40.063Z,99.90
2023-02-03T21:28:27.976Z,99.90
2023-02-03T21:30:54.885Z,99.90
2023-02-03T21:33:42.692Z,99.90
2023-02-03T21:36:21.285Z,99.90
2023-02-03T21:38:56.319Z,99.90
2023-02-03T21:41:24.997Z,99.90
2023-02-03T21:43:57.659Z,99.90
2023-02-03T21:46:31.232Z,99.90
2023-02-03T21:48:59.723Z,99.90
2023-02-03T21:51:39.119Z,99.90
2023-02-03T21:54:27.348Z,99.90
2023-02-03T21:56:54.373Z,99.90
2023-02-03T21:59:37.290Z,99.90
2023-02-03T22:02:29.505Z,99.90
2023-02-03T22:04:57.907Z,99.90
2023-02-03T22:07:24.739Z,99.90
2023-02-03T22:09:51.625Z,99.90
2023-02-03T22:12:18.473Z,99.90
2023-02-03T22:14:45.263Z,99.90
2023-02-03T22:17:14.272Z,99.90
2023-02-03T22:19:41.177Z,99.90
2023-02-03T22:22:07.939Z,99.90
2023-02-03T22:24:34.727Z,99.90
2023-02-03T22:27:01.759Z,99.90
2023-02-03T22:29:28.545Z,99.90
2023-02-03T22:31:55.459Z,99.90
2023-02-03T22:34:23.490Z,99.90
2023-02-03T22:36:50.245Z,99.90
2023-02-03T22:39:17.018Z,99.90
2023-02-03T22:41:43.797Z,99.90
2023-02-03T22:44:16.077Z,99.90
2023-02-03T22:46:42.869Z,99.90
2023-02-03T22:49:10.977Z,99.90
2023-02-03T22:51:37.857Z,99.90
2023-02-03T22:54:04.770Z,99.90
2023-02-03T22:56:31.566Z,99.90
2023-02-03T22:58:58.353Z,99.90
2023-02-03T23:01:25.139Z,99.90
2023-02-03T23:03:51.869Z,99.90
2023-02-03T23:06:18.721Z,99.90
2023-02-03T23:08:45.660Z,99.90
2023-02-03T23:11:12.448Z,99.90
2023-02-03T23:13:39.208Z,99.90
2023-02-03T23:16:06.134Z,99.90
2023-02-03T23:18:32.952Z,99.90
2023-02-03T23:20:59.715Z,99.90
2023-02-03T23:23:26.855Z,99.90
2023-02-03T23:25:53.580Z,99.90
2023-02-03T23:28:20.484Z,99.90
2023-02-03T23:30:47.351Z,99.90
2023-02-03T23:33:14.153Z,99.90
2023-02-03T23:35:46.794Z,99.90
2023-02-03T23:38:15.481Z,99.90
2023-02-03T23:40:43.061Z,99.90
2023-02-03T23:43:10.311Z,99.90
2023-02-03T23:45:37.207Z,99.90
2023-02-03T23:48:04.198Z,99.90
2023-02-03T23:50:32.773Z,99.90
2023-02-03T23:52:59.735Z,99.90
2023-02-03T23:55:26.540Z,99.90
2023-02-03T23:57:53.360Z,99.90
